createdAt,value
2023-07-31T00:01:47.368Z,15.85
2023-07-31T00:04:14.162Z,15.79
2023-07-31T00:06:41.063Z,15.71
2023-07-31T00:09:07.867Z,15.69
2023-07-31T00:11:34.493Z,15.71
2023-07-31T00:14:01.168Z,15.77
2023-07-31T00:16:27.980Z,15.81
2023-07-31T00:18:54.714Z,15.83
2023-07-31T00:21:21.371Z,15.84
2023-07-31T00:23:48.068Z,15.80
2023-07-31T00:26:14.653Z,15.83
2023-07-31T00:28:41.207Z,15.86
2023-07-31T00:31:10.033Z,15.88
2023-07-31T00:33:37.670Z,15.89
2023-07-31T00:36:04.478Z,15.85
2023-07-31T00:38:32.417Z,15.82
2023-07-31T00:40:59.197Z,15.87
2023-07-31T00:43:26.163Z,15.87
2023-07-31T00:45:53.068Z,15.78
2023-07-31T00:48:20.115Z,15.85
2023-07-31T00:50:46.923Z,15.77
2023-07-31T00:53:14.687Z,15.75
2023-07-31T00:55:41.718Z,15.79
2023-07-31T00:58:08.304Z,15.69
2023-07-31T01:00:34.942Z,15.71
2023-07-31T01:03:02.014Z,15.65
2023-07-31T01:06:01.514Z,15.73
2023-07-31T01:08:40.209Z,15.71
2023-07-31T01:11:17.472Z,15.64
2023-07-31T01:13:45.914Z,15.67
2023-07-31T01:16:13.118Z,15.68
2023-07-31T01:18:39.768Z,15.57
2023-07-31T01:21:35.441Z,15.60
2023-07-31T01:24:21.368Z,15.61
2023-07-31T01:26:54.873Z,15.56
2023-07-31T01:29:37.046Z,15.68
2023-07-31T01:32:05.958Z,15.67
2023-07-31T01:34:33.632Z,15.79
2023-07-31T01:37:00.485Z,15.82
2023-07-31T01:39:27.182Z,15.83
2023-07-31T01:41:53.832Z,15.90
2023-07-31T01:44:20.391Z,15.88
2023-07-31T01:46:47.151Z,15.89
2023-07-31T01:49:14.049Z,15.96
2023-07-31T01:51:40.695Z,15.98
2023-07-31T01:54:07.410Z,15.99
2023-07-31T01:56:34.208Z,16.03
2023-07-31T01:59:00.842Z,16.00
2023-07-31T02:01:27.510Z,15.99
2023-07-31T02:03:55.222Z,16.01
2023-07-31T02:06:21.874Z,15.98
2023-07-31T02:08:48.603Z,16.01
2023-07-31T02:11:15.310Z,15.95
2023-07-31T02:13:41.893Z,15.95
2023-07-31T02:16:08.610Z,15.91
2023-07-31T02:18:35.193Z,15.95
2023-07-31T02:21:01.890Z,16.03
2023-07-31T02:23:28.638Z,16.00
2023-07-31T02:25:55.275Z,16.00
2023-07-31T02:28:21.947Z,16.06
2023-07-31T02:30:48.941Z,16.11
2023-07-31T02:33:17.527Z,16.02
2023-07-31T02:35:44.292Z,16.08
2023-07-31T02:38:10.901Z,16.12
2023-07-31T02:40:37.553Z,16.10
2023-07-31T02:43:05.327Z,16.08
2023-07-31T02:45:34.393Z,16.04
2023-07-31T02:48:01.197Z,16.03
2023-07-31T02:50:28.939Z,16.04
2023-07-31T02:52:55.589Z,16.01
2023-07-31T02:55:22.361Z,15.98
2023-07-31T02:57:49.106Z,15.87
2023-07-31T03:00:15.713Z,15.90
2023-07-31T03:02:42.451Z,15.86
2023-07-31T03:05:09.328Z,15.84
2023-07-31T03:07:36.091Z,15.93
2023-07-31T03:10:05.653Z,15.76
2023-07-31T03:12:32.261Z,15.75
2023-07-31T03:14:59.082Z,15.79
2023-07-31T03:17:28.529Z,15.80
2023-07-31T03:19:55.218Z,15.74
2023-07-31T03:22:21.976Z,15.77
2023-07-31T03:24:50.524Z,15.78
2023-07-31T03:27:17.162Z,15.84
2023-07-31T03:29:43.835Z,15.85
2023-07-31T03:32:10.520Z,15.82
2023-07-31T03:34:37.214Z,15.82
2023-07-31T03:37:05.918Z,15.81
2023-07-31T03:39:32.809Z,15.78
2023-07-31T03:41:59.424Z,15.72
2023-07-31T03:44:25.983Z,15.66
2023-07-31T03:46:52.848Z,15.63
2023-07-31T03:49:19.587Z,15.58
2023-07-31T03:51:46.253Z,15.52
2023-07-31T03:54:14.320Z,15.46
2023-07-31T03:56:42.256Z,15.47
2023-07-31T03:59:09.015Z,15.43
2023-07-31T04:01:35.683Z,15.43
2023-07-31T04:04:02.445Z,15.43
2023-07-31T04:06:29.055Z,15.41
2023-07-31T04:08:55.676Z,15.43
2023-07-31T04:11:22.307Z,15.46
2023-07-31T04:13:49.033Z,15.44
2023-07-31T04:16:15.608Z,15.44
2023-07-31T04:18:42.167Z,15.44
2023-07-31T04:21:08.772Z,15.46
2023-07-31T04:23:35.442Z,15.43
2023-07-31T04:26:02.087Z,15.33
2023-07-31T04:28:28.855Z,15.41
2023-07-31T04:30:55.514Z,15.32
2023-07-31T04:33:22.587Z,15.42
2023-07-31T04:35:58.086Z,15.48
2023-07-31T04:38:24.688Z,15.47
2023-07-31T04:40:51.515Z,15.50
2023-07-31T04:43:18.194Z,15.50
2023-07-31T04:45:48.982Z,15.46
2023-07-31T04:48:16.409Z,15.51
2023-07-31T04:50:43.394Z,15.53
2023-07-31T04:53:09.966Z,15.56
2023-07-31T04:55:36.722Z,15.56
2023-07-31T04:58:06.065Z,15.56
2023-07-31T05:00:32.933Z,15.56
2023-07-31T05:02:59.794Z,15.56
2023-07-31T05:05:26.516Z,15.53
2023-07-31T05:07:53.168Z,15.60
2023-07-31T05:10:19.768Z,15.55
2023-07-31T05:12:46.466Z,15.67
2023-07-31T05:15:13.133Z,15.70
2023-07-31T05:17:39.797Z,15.70
2023-07-31T05:20:07.310Z,15.68
2023-07-31T05:22:34.162Z,15.73
2023-07-31T05:25:01.100Z,15.75
2023-07-31T05:27:27.900Z,15.74
2023-07-31T05:29:54.480Z,15.81
2023-07-31T05:32:21.255Z,15.81
2023-07-31T05:34:48.004Z,15.79
2023-07-31T05:37:15.032Z,15.82
2023-07-31T05:39:41.626Z,15.78
2023-07-31T05:42:08.188Z,15.87
2023-07-31T05:44:35.062Z,15.90
2023-07-31T05:47:01.761Z,15.92
2023-07-31T05:49:28.410Z,15.97
2023-07-31T05:51:55.030Z,15.89
2023-07-31T05:54:21.628Z,15.96
2023-07-31T05:56:48.250Z,15.99
2023-07-31T05:59:15.182Z,16.00
2023-07-31T06:01:41.847Z,16.01
2023-07-31T06:04:08.617Z,16.01
2023-07-31T06:06:35.529Z,16.02
2023-07-31T06:09:02.136Z,16.09
2023-07-31T06:11:28.770Z,16.08
2023-07-31T06:13:57.842Z,16.08
2023-07-31T06:16:24.416Z,16.13
2023-07-31T06:18:50.987Z,16.14
2023-07-31T06:21:18.180Z,16.19
2023-07-31T06:23:44.833Z,16.18
2023-07-31T06:26:11.431Z,16.20
2023-07-31T06:28:38.056Z,16.18
2023-07-31T06:31:05.134Z,16.20
2023-07-31T06:33:31.959Z,16.22
2023-07-31T06:35:58.517Z,16.16
2023-07-31T06:38:28.640Z,16.24
2023-07-31T06:40:55.246Z,16.28
2023-07-31T06:43:21.997Z,16.29
2023-07-31T06:45:51.771Z,16.37
2023-07-31T06:48:18.459Z,16.34
2023-07-31T06:50:45.139Z,16.37
2023-07-31T06:53:11.782Z,16.43
2023-07-31T06:55:38.704Z,16.49
2023-07-31T06:58:05.269Z,16.53
2023-07-31T07:00:32.226Z,16.51
2023-07-31T07:02:58.851Z,16.52
2023-07-31T07:05:25.579Z,16.53
2023-07-31T07:07:54.883Z,16.55
2023-07-31T07:10:21.553Z,16.49
2023-07-31T07:12:49.754Z,16.47
2023-07-31T07:15:16.408Z,16.51
2023-07-31T07:17:43.460Z,16.46
2023-07-31T07:20:10.542Z,16.48
2023-07-31T07:22:37.232Z,16.53
2023-07-31T07:25:05.277Z,16.54
2023-07-31T07:27:32.172Z,16.47
2023-07-31T07:30:00.335Z,16.53
2023-07-31T07:32:27.156Z,16.58
2023-07-31T07:34:53.908Z,16.63
2023-07-31T07:37:20.570Z,16.65
2023-07-31T07:39:47.219Z,16.70
2023-07-31T07:42:16.333Z,16.71
2023-07-31T07:44:42.984Z,16.85
2023-07-31T07:47:09.795Z,16.94
2023-07-31T07:49:36.845Z,16.85
2023-07-31T07:52:04.619Z,16.80
2023-07-31T07:54:32.920Z,16.83
2023-07-31T07:57:00.381Z,16.89
2023-07-31T07:59:26.988Z,16.68
2023-07-31T08:01:53.668Z,16.66
2023-07-31T08:04:20.365Z,16.69
2023-07-31T08:06:47.066Z,16.71
2023-07-31T08:09:13.680Z,16.71
2023-07-31T08:11:40.363Z,16.70
2023-07-31T08:14:07.121Z,16.94
2023-07-31T08:16:33.942Z,17.22
2023-07-31T08:19:00.923Z,17.36
2023-07-31T08:21:27.705Z,17.63
2023-07-31T08:23:54.354Z,17.48
2023-07-31T08:26:22.183Z,17.55
2023-07-31T08:28:50.078Z,17.63
2023-07-31T08:31:16.879Z,17.65
2023-07-31T08:33:43.752Z,17.49
2023-07-31T08:36:10.532Z,17.64
2023-07-31T08:38:37.384Z,17.44
2023-07-31T08:41:06.083Z,17.51
2023-07-31T08:43:37.326Z,17.40
2023-07-31T08:46:06.667Z,17.54
2023-07-31T08:48:34.591Z,17.66
2023-07-31T08:51:06.767Z,17.50
2023-07-31T08:53:35.844Z,17.57
2023-07-31T08:56:03.829Z,17.57
2023-07-31T08:58:33.432Z,17.48
2023-07-31T09:01:05.380Z,17.49
2023-07-31T09:03:37.251Z,17.53
2023-07-31T09:06:07.467Z,17.49
2023-07-31T09:08:42.936Z,17.34
2023-07-31T09:11:11.786Z,17.48
2023-07-31T09:13:41.331Z,17.36
2023-07-31T09:16:11.365Z,17.45
2023-07-31T09:18:58.346Z,17.40
2023-07-31T09:21:26.902Z,17.50
2023-07-31T09:23:55.487Z,17.56
2023-07-31T09:26:36.646Z,17.60
2023-07-31T09:29:20.930Z,17.64
2023-07-31T09:31:47.735Z,17.50
2023-07-31T09:34:15.150Z,17.68
2023-07-31T09:36:46.218Z,17.65
2023-07-31T09:39:15.095Z,17.64
2023-07-31T09:41:44.914Z,17.59
2023-07-31T09:44:12.133Z,17.64
2023-07-31T09:46:39.457Z,17.61
2023-07-31T09:49:10.789Z,17.67
2023-07-31T09:51:42.373Z,17.70
2023-07-31T09:54:17.121Z,17.65
2023-07-31T09:56:49.672Z,17.78
2023-07-31T09:59:19.675Z,17.82
2023-07-31T10:01:50.525Z,17.85
2023-07-31T10:04:20.488Z,17.92
2023-07-31T10:06:50.647Z,17.95
2023-07-31T10:09:19.899Z,17.97
2023-07-31T10:11:57.264Z,17.88
2023-07-31T10:14:25.277Z,18.06
2023-07-31T10:16:54.064Z,18.08
2023-07-31T10:19:22.151Z,18.21
2023-07-31T10:21:50.266Z,18.19
2023-07-31T10:24:17.426Z,18.20
2023-07-31T10:26:47.155Z,18.26
2023-07-31T10:29:15.152Z,18.38
2023-07-31T10:31:42.729Z,18.54
2023-07-31T10:34:09.871Z,18.76
2023-07-31T10:36:36.640Z,19.01
2023-07-31T10:39:25.584Z,19.44
2023-07-31T10:41:52.396Z,19.53
2023-07-31T10:44:20.615Z,19.35
2023-07-31T10:46:47.876Z,19.40
2023-07-31T10:49:23.820Z,19.55
2023-07-31T10:52:10.258Z,19.81
2023-07-31T10:54:40.789Z,19.73
2023-07-31T10:57:27.768Z,19.69
2023-07-31T11:00:24.095Z,19.60
2023-07-31T11:03:17.108Z,19.45
2023-07-31T11:09:09.416Z,19.04
2023-07-31T11:14:41.671Z,18.65
2023-07-31T11:17:31.238Z,18.63
2023-07-31T11:20:13.069Z,18.51
2023-07-31T11:22:47.763Z,18.65
2023-07-31T11:25:25.197Z,18.55
2023-07-31T11:31:27.802Z,18.62
2023-07-31T11:34:23.581Z,18.82
2023-07-31T11:36:59.709Z,18.73
2023-07-31T11:39:35.864Z,18.74
2023-07-31T11:42:29.175Z,18.74
2023-07-31T11:45:02.454Z,18.91
2023-07-31T11:54:25.701Z,19.66
2023-07-31T11:57:08.637Z,19.43
2023-07-31T12:00:03.760Z,19.48
2023-07-31T12:02:38.168Z,19.42
2023-07-31T12:05:25.966Z,19.36
2023-07-31T12:10:43.256Z,19.25
2023-07-31T12:16:23.207Z,19.33
2023-07-31T12:18:57.216Z,19.33
2023-07-31T12:21:37.112Z,19.22
2023-07-31T12:24:19.184Z,19.38
2023-07-31T12:30:55.637Z,19.33
2023-07-31T12:33:23.154Z,19.14
2023-07-31T12:35:50.141Z,19.19
2023-07-31T12:38:16.834Z,19.03
2023-07-31T12:40:43.483Z,19.15
2023-07-31T12:43:10.187Z,19.32
2023-07-31T12:45:37.180Z,19.29
2023-07-31T12:48:04.144Z,19.21
2023-07-31T12:50:31.014Z,19.24
2023-07-31T12:52:58.535Z,19.54
2023-07-31T12:55:25.383Z,19.56
2023-07-31T12:57:52.457Z,19.72
2023-07-31T13:00:20.028Z,20.03
2023-07-31T13:02:47.323Z,20.45
2023-07-31T13:05:16.349Z,20.48
2023-07-31T13:07:43.134Z,20.13
2023-07-31T13:10:10.414Z,19.92
2023-07-31T13:12:37.245Z,19.68
2023-07-31T13:15:08.378Z,19.66
2023-07-31T13:17:35.368Z,19.49
2023-07-31T13:20:02.613Z,19.22
2023-07-31T13:22:29.395Z,19.03
2023-07-31T13:24:56.230Z,18.97
2023-07-31T13:27:23.070Z,18.96
2023-07-31T13:29:50.450Z,18.87
2023-07-31T13:32:21.252Z,18.87
2023-07-31T13:34:49.146Z,18.86
2023-07-31T13:37:16.320Z,18.90
2023-07-31T13:39:43.904Z,18.78
2023-07-31T13:42:13.574Z,18.85
2023-07-31T13:44:40.924Z,18.81
2023-07-31T13:47:08.732Z,18.80
2023-07-31T13:49:36.811Z,18.65
2023-07-31T13:52:04.004Z,18.63
2023-07-31T13:54:31.615Z,18.63
2023-07-31T13:56:58.404Z,18.48
2023-07-31T13:59:25.100Z,18.35
2023-07-31T14:01:51.950Z,18.25
2023-07-31T14:04:19.205Z,18.08
2023-07-31T14:06:46.288Z,18.09
2023-07-31T14:09:13.131Z,17.92
2023-07-31T14:11:42.317Z,17.84
2023-07-31T14:14:10.995Z,17.90
2023-07-31T14:16:38.010Z,17.77
2023-07-31T14:19:05.450Z,17.71
2023-07-31T14:21:32.503Z,17.63
2023-07-31T14:23:59.213Z,17.63
2023-07-31T14:26:25.828Z,17.65
2023-07-31T14:28:52.501Z,17.68
2023-07-31T14:31:19.252Z,17.57
2023-07-31T14:33:46.440Z,17.60
2023-07-31T14:36:13.113Z,17.61
2023-07-31T14:38:42.213Z,17.61
2023-07-31T14:41:08.946Z,17.62
2023-07-31T14:43:38.472Z,17.49
2023-07-31T14:46:06.425Z,17.54
2023-07-31T14:48:36.231Z,17.62
2023-07-31T14:51:05.540Z,17.63
2023-07-31T14:53:34.672Z,17.73
2023-07-31T14:56:01.277Z,17.75
2023-07-31T14:58:27.956Z,17.71
2023-07-31T15:00:54.562Z,17.72
2023-07-31T15:03:21.337Z,17.70
2023-07-31T15:05:48.077Z,17.78
2023-07-31T15:08:14.716Z,17.87
2023-07-31T15:10:41.378Z,17.85
2023-07-31T15:13:08.176Z,17.77
2023-07-31T15:15:34.879Z,17.85
2023-07-31T15:18:01.587Z,17.76
2023-07-31T15:20:28.245Z,17.80
2023-07-31T15:22:54.865Z,17.83
2023-07-31T15:25:21.560Z,17.84
2023-07-31T15:27:50.677Z,17.72
2023-07-31T15:30:17.430Z,17.83
2023-07-31T15:32:46.600Z,17.82
2023-07-31T15:35:13.212Z,17.83
2023-07-31T15:37:40.219Z,17.83
2023-07-31T15:40:07.420Z,17.85
2023-07-31T15:42:39.164Z,17.76
2023-07-31T15:45:07.232Z,17.84
2023-07-31T15:47:33.831Z,17.82
2023-07-31T15:50:00.460Z,17.76
2023-07-31T15:52:27.116Z,17.85
2023-07-31T15:54:53.776Z,17.88
2023-07-31T15:57:20.407Z,17.85
2023-07-31T15:59:46.958Z,17.85
2023-07-31T16:02:13.699Z,17.80
2023-07-31T16:04:41.327Z,17.79
2023-07-31T16:07:08.056Z,17.82
2023-07-31T16:09:34.584Z,17.80
2023-07-31T16:12:01.210Z,17.85
2023-07-31T16:14:27.724Z,17.89
2023-07-31T16:16:54.836Z,17.92
2023-07-31T16:19:21.440Z,17.91
2023-07-31T16:21:48.063Z,17.88
2023-07-31T16:24:14.645Z,17.91
2023-07-31T16:26:41.590Z,17.87
2023-07-31T16:29:08.633Z,17.82
2023-07-31T16:31:46.863Z,17.82
2023-07-31T16:34:18.271Z,17.88
2023-07-31T16:36:44.906Z,17.87
2023-07-31T16:39:11.611Z,17.83
2023-07-31T16:41:38.583Z,17.82
2023-07-31T16:44:06.229Z,17.80
2023-07-31T16:46:34.374Z,17.79
2023-07-31T16:49:01.161Z,17.76
2023-07-31T16:51:27.805Z,17.63
2023-07-31T16:53:55.285Z,17.49
2023-07-31T16:56:21.891Z,17.52
2023-07-31T16:58:48.473Z,17.49
2023-07-31T17:01:15.241Z,17.34
2023-07-31T17:03:42.033Z,17.38
2023-07-31T17:06:08.726Z,17.29
2023-07-31T17:08:35.329Z,17.22
2023-07-31T17:11:02.210Z,17.21
2023-07-31T17:13:28.826Z,17.15
2023-07-31T17:15:55.504Z,17.14
2023-07-31T17:18:22.150Z,17.14
2023-07-31T17:20:48.716Z,17.18
2023-07-31T17:23:15.438Z,17.25
2023-07-31T17:25:42.151Z,17.30
2023-07-31T17:28:08.844Z,17.34
2023-07-31T17:30:35.532Z,17.29
2023-07-31T17:33:02.221Z,17.32
2023-07-31T17:35:29.006Z,17.28
2023-07-31T17:37:58.197Z,17.33
2023-07-31T17:40:25.999Z,17.36
2023-07-31T17:42:52.604Z,17.35
2023-07-31T17:45:19.429Z,17.35
2023-07-31T17:47:46.080Z,17.37
2023-07-31T17:50:12.766Z,17.37
2023-07-31T17:52:39.477Z,17.46
2023-07-31T17:55:06.652Z,17.53
2023-07-31T17:57:33.292Z,17.52
2023-07-31T17:59:59.999Z,17.40
2023-07-31T18:02:26.724Z,17.33
2023-07-31T18:04:53.304Z,17.26
2023-07-31T18:07:19.965Z,17.03
2023-07-31T18:09:46.789Z,16.96
2023-07-31T18:12:13.921Z,16.87
2023-07-31T18:14:41.287Z,16.85
2023-07-31T18:17:08.261Z,16.96
2023-07-31T18:19:34.983Z,16.93
2023-07-31T18:22:01.714Z,16.78
2023-07-31T18:24:28.509Z,16.77
2023-07-31T18:26:55.191Z,16.85
2023-07-31T18:29:22.080Z,16.78
2023-07-31T18:31:48.744Z,16.71
2023-07-31T18:34:15.450Z,16.73
2023-07-31T18:36:43.384Z,16.55
2023-07-31T18:39:10.812Z,16.63
2023-07-31T18:41:37.527Z,16.50
2023-07-31T18:44:04.242Z,16.48
2023-07-31T18:46:30.870Z,16.37
2023-07-31T18:48:57.835Z,16.21
2023-07-31T18:51:24.806Z,16.23
2023-07-31T18:53:51.455Z,16.30
2023-07-31T18:56:18.440Z,16.12
2023-07-31T18:58:45.161Z,16.25
2023-07-31T19:01:11.907Z,16.35
2023-07-31T19:03:39.123Z,16.31
2023-07-31T19:06:09.328Z,16.29
2023-07-31T19:08:36.284Z,16.43
2023-07-31T19:11:10.625Z,16.36
2023-07-31T19:13:40.574Z,16.34
2023-07-31T19:16:08.800Z,16.22
2023-07-31T19:18:37.018Z,16.20
2023-07-31T19:21:05.960Z,16.04
2023-07-31T19:23:32.786Z,16.12
2023-07-31T19:26:03.011Z,16.12
2023-07-31T19:28:30.595Z,16.02
2023-07-31T19:30:58.898Z,16.00
2023-07-31T19:33:25.590Z,15.97
2023-07-31T19:35:59.350Z,15.93
2023-07-31T19:38:26.461Z,15.85
2023-07-31T19:40:53.553Z,15.89
2023-07-31T19:43:20.311Z,15.83
2023-07-31T19:45:47.521Z,15.71
2023-07-31T19:48:14.190Z,15.73
2023-07-31T19:50:40.853Z,15.67
2023-07-31T19:53:07.496Z,15.74
2023-07-31T19:55:34.071Z,15.70
2023-07-31T19:58:00.782Z,15.74
2023-07-31T20:00:27.400Z,15.65
2023-07-31T20:02:54.180Z,15.77
2023-07-31T20:05:20.894Z,15.77
2023-07-31T20:07:47.650Z,15.65
2023-07-31T20:10:14.587Z,15.84
2023-07-31T20:12:41.270Z,15.79
2023-07-31T20:15:20.109Z,15.91
2023-07-31T20:17:47.207Z,15.94
2023-07-31T20:20:14.079Z,15.95
2023-07-31T20:22:40.958Z,15.93
2023-07-31T20:25:08.387Z,15.87
2023-07-31T20:27:34.977Z,15.83
2023-07-31T20:30:04.280Z,15.85
2023-07-31T20:32:30.977Z,15.82
2023-07-31T20:34:57.696Z,15.92
2023-07-31T20:37:24.543Z,15.90
2023-07-31T20:39:52.112Z,15.82
2023-07-31T20:42:21.709Z,15.95
2023-07-31T20:44:48.427Z,16.00
2023-07-31T20:47:15.034Z,15.96
2023-07-31T20:49:41.986Z,16.03
2023-07-31T20:52:08.879Z,15.93
2023-07-31T20:54:35.657Z,16.07
2023-07-31T20:57:04.846Z,15.96
2023-07-31T20:59:31.505Z,16.06
2023-07-31T21:01:58.243Z,16.16
2023-07-31T21:04:24.900Z,16.09
2023-07-31T21:06:51.678Z,16.08
2023-07-31T21:09:19.974Z,16.08
2023-07-31T21:11:46.717Z,16.07
2023-07-31T21:14:13.455Z,15.98
2023-07-31T21:16:40.686Z,16.11
2023-07-31T21:19:07.614Z,16.08
2023-07-31T21:21:34.384Z,16.01
2023-07-31T21:24:01.120Z,16.06
2023-07-31T21:29:49.153Z,16.00
2023-07-31T21:32:31.713Z,16.03
2023-07-31T21:35:00.151Z,16.03
2023-07-31T21:37:31.850Z,15.87
2023-07-31T21:40:04.088Z,15.86
2023-07-31T21:42:40.676Z,16.02
2023-07-31T21:45:13.585Z,15.82
2023-07-31T21:47:40.550Z,15.81
2023-07-31T21:50:08.950Z,15.83
2023-07-31T21:52:46.290Z,15.78
2023-07-31T21:55:15.677Z,15.82
2023-07-31T21:58:06.496Z,15.76
2023-07-31T22:00:36.069Z,15.83
2023-07-31T22:03:10.135Z,15.71
2023-07-31T22:05:48.119Z,15.87
2023-07-31T22:08:28.128Z,15.84
2023-07-31T22:10:59.959Z,15.73
2023-07-31T22:13:48.401Z,15.72
2023-07-31T22:16:19.034Z,15.69
2023-07-31T22:18:49.150Z,15.68
2023-07-31T22:21:26.895Z,15.66
2023-07-31T22:24:03.215Z,15.66
2023-07-31T22:26:29.871Z,15.68
2023-07-31T22:28:58.300Z,15.73
2023-07-31T22:31:29.511Z,15.77
2023-07-31T22:34:00.885Z,15.82
2023-07-31T22:36:36.364Z,15.87
2023-07-31T22:39:05.654Z,15.83
2023-07-31T22:41:32.828Z,15.85
2023-07-31T22:44:00.892Z,15.87
2023-07-31T22:46:27.749Z,15.89
2023-07-31T22:48:54.998Z,15.75
2023-07-31T22:51:26.204Z,15.86
2023-07-31T22:53:53.111Z,15.69
2023-07-31T22:56:19.752Z,15.74
2023-07-31T22:58:48.749Z,15.61
2023-07-31T23:01:16.232Z,15.56
2023-07-31T23:03:43.034Z,15.57
2023-07-31T23:06:10.041Z,15.55
2023-07-31T23:08:36.696Z,15.61
2023-07-31T23:11:05.830Z,15.69
2023-07-31T23:13:33.966Z,15.66
2023-07-31T23:16:00.743Z,15.67
2023-07-31T23:18:27.626Z,15.72
2023-07-31T23:20:57.469Z,15.60
2023-07-31T23:23:25.833Z,15.55
2023-07-31T23:25:53.477Z,15.60
2023-07-31T23:28:21.221Z,15.65
2023-07-31T23:30:49.908Z,15.62
2023-07-31T23:33:16.719Z,15.64
2023-07-31T23:35:43.944Z,15.67
2023-07-31T23:38:10.926Z,15.68
2023-07-31T23:40:37.664Z,15.62
2023-07-31T23:43:04.383Z,15.70
2023-07-31T23:45:36.525Z,15.64
2023-07-31T23:48:04.034Z,15.56
2023-07-31T23:50:33.254Z,15.63
2023-07-31T23:53:00.516Z,15.64
2023-07-31T23:55:27.415Z,15.49
2023-07-31T23:57:54.296Z,15.56
